createdAt,value
2018-12-18T00:01:35.066Z,55.33
2018-12-18T00:04:10.150Z,49.33
2018-12-18T00:06:47.692Z,48.20
2018-12-18T00:09:18.822Z,49.83
2018-12-18T00:11:50.753Z,47.43
2018-12-18T00:14:21.843Z,46.00
2018-12-18T00:16:55.002Z,48.13
2018-12-18T00:19:26.260Z,44.07
2018-12-18T00:21:57.974Z,44.83
2018-12-18T00:24:29.206Z,42.33
2018-12-18T00:27:00.531Z,36.80
2018-12-18T00:29:35.287Z,38.00
2018-12-18T00:32:07.535Z,33.93
2018-12-18T00:34:38.453Z,34.93
2018-12-18T00:37:11.002Z,34.87
2018-12-18T00:39:42.857Z,35.30
2018-12-18T00:42:14.264Z,35.67
2018-12-18T00:44:48.285Z,36.20
2018-12-18T00:47:19.611Z,32.10
2018-12-18T00:49:50.423Z,30.10
2018-12-18T00:52:21.171Z,30.37
2018-12-18T00:54:52.032Z,32.60
2018-12-18T00:57:22.766Z,29.77
2018-12-18T00:59:53.914Z,30.80
2018-12-18T01:02:24.720Z,30.63
2018-12-18T01:04:55.652Z,29.97
2018-12-18T01:07:26.369Z,28.23
2018-12-18T01:09:57.089Z,27.33
2018-12-18T01:12:27.896Z,26.30
2018-12-18T01:14:59.091Z,24.80
2018-12-18T01:17:29.783Z,25.00
2018-12-18T01:20:03.367Z,25.03
2018-12-18T01:22:34.405Z,25.13
2018-12-18T01:25:08.673Z,24.20
2018-12-18T01:27:39.644Z,23.70
2018-12-18T01:30:10.422Z,24.47
2018-12-18T01:32:41.156Z,23.03
2018-12-18T01:35:12.025Z,25.57
2018-12-18T01:37:42.786Z,24.50
2018-12-18T01:40:14.081Z,23.60
2018-12-18T01:42:44.849Z,25.33
2018-12-18T01:45:16.855Z,23.83
2018-12-18T01:47:49.914Z,23.60
2018-12-18T01:50:33.160Z,23.47
2018-12-18T01:53:05.344Z,21.13
2018-12-18T01:55:37.371Z,19.50
2018-12-18T01:58:07.982Z,19.67
2018-12-18T02:00:38.670Z,20.40
2018-12-18T02:03:09.547Z,17.77
2018-12-18T02:05:46.757Z,18.50
2018-12-18T02:08:17.474Z,18.90
2018-12-18T02:10:48.103Z,17.73
2018-12-18T02:13:18.825Z,17.87
2018-12-18T02:15:49.527Z,17.50
2018-12-18T02:18:20.211Z,18.00
2018-12-18T02:20:50.943Z,16.93
2018-12-18T02:23:21.767Z,17.73
2018-12-18T02:25:52.418Z,17.93
2018-12-18T02:28:23.190Z,19.33
2018-12-18T02:30:53.855Z,15.37
2018-12-18T02:33:24.555Z,15.23
2018-12-18T02:35:55.526Z,12.10
2018-12-18T02:38:26.265Z,10.93
2018-12-18T02:40:56.923Z,11.00
2018-12-18T02:43:27.626Z,13.47
2018-12-18T02:45:58.346Z,10.67
2018-12-18T02:48:29.195Z,15.20
2018-12-18T02:51:00.000Z,13.47
2018-12-18T02:53:30.690Z,11.00
2018-12-18T02:56:05.507Z,13.67
2018-12-18T02:58:36.186Z,13.70
2018-12-18T03:01:07.289Z,14.10
2018-12-18T03:03:38.131Z,13.40
2018-12-18T03:06:08.754Z,11.53
2018-12-18T03:08:39.471Z,11.77
2018-12-18T03:11:12.810Z,11.20
2018-12-18T03:13:43.468Z,11.63
2018-12-18T03:16:14.209Z,10.23
2018-12-18T03:18:44.966Z,11.50
2018-12-18T03:21:16.720Z,11.57
2018-12-18T03:23:47.391Z,11.33
2018-12-18T03:26:18.023Z,10.67
2018-12-18T03:28:48.987Z,11.40
2018-12-18T03:31:19.897Z,11.53
2018-12-18T03:33:50.511Z,11.10
2018-12-18T03:36:21.918Z,11.50
2018-12-18T03:38:52.685Z,10.63
2018-12-18T03:41:23.424Z,11.43
2018-12-18T03:43:54.164Z,10.57
2018-12-18T03:46:24.794Z,11.87
2018-12-18T03:48:55.512Z,11.53
2018-12-18T03:51:27.271Z,11.90
2018-12-18T03:53:58.001Z,11.43
2018-12-18T03:56:28.659Z,11.33
2018-12-18T03:58:59.323Z,11.97
2018-12-18T04:01:30.303Z,11.13
2018-12-18T04:04:01.007Z,11.23
2018-12-18T04:06:34.735Z,10.00
2018-12-18T04:09:07.664Z,10.17
2018-12-18T04:11:42.410Z,10.37
2018-12-18T04:14:14.953Z,10.77
2018-12-18T04:16:45.964Z,10.57
2018-12-18T04:19:16.575Z,10.53
2018-12-18T04:21:47.228Z,9.53
2018-12-18T04:24:17.904Z,9.73
2018-12-18T04:26:48.618Z,10.07
2018-12-18T04:29:19.240Z,9.80
2018-12-18T04:31:51.630Z,10.30
2018-12-18T04:34:22.301Z,9.17
2018-12-18T04:36:53.356Z,9.00
2018-12-18T04:39:24.006Z,9.00
2018-12-18T04:41:54.638Z,8.83
2018-12-18T04:44:25.819Z,8.83
2018-12-18T04:46:56.440Z,8.67
2018-12-18T04:49:27.655Z,8.70
2018-12-18T04:51:58.306Z,8.10
2018-12-18T04:54:31.235Z,8.37
2018-12-18T04:57:04.404Z,7.70
2018-12-18T04:59:35.104Z,7.27
2018-12-18T05:02:06.195Z,7.43
2018-12-18T05:04:37.057Z,7.20
2018-12-18T05:07:07.932Z,7.40
2018-12-18T05:09:38.641Z,6.97
2018-12-18T05:12:11.518Z,7.53
2018-12-18T05:14:42.254Z,6.93
2018-12-18T05:17:12.892Z,4.40
2018-12-18T05:19:43.655Z,5.33
2018-12-18T05:22:14.325Z,6.37
2018-12-18T05:24:45.382Z,4.20
2018-12-18T05:27:16.077Z,6.20
2018-12-18T05:29:46.731Z,5.13
2018-12-18T05:32:17.354Z,5.83
2018-12-18T05:34:48.220Z,3.20
2018-12-18T05:37:18.852Z,4.13
2018-12-18T05:39:49.568Z,3.20
2018-12-18T05:42:21.322Z,2.20
2018-12-18T05:44:51.957Z,3.67
2018-12-18T05:47:22.628Z,2.57
2018-12-18T05:49:53.215Z,2.03
2018-12-18T05:52:24.016Z,1.95
2018-12-18T05:54:54.666Z,1.35
2018-12-18T05:57:25.339Z,1.50
2018-12-18T05:59:56.023Z,1.27
2018-12-18T06:02:26.662Z,1.20
2018-12-18T06:05:02.995Z,1.60
2018-12-18T06:07:30.014Z,1.40
2018-12-18T06:10:00.698Z,2.10
2018-12-18T06:12:31.878Z,1.35
2018-12-18T06:15:03.047Z,1.47
2018-12-18T06:17:34.478Z,1.30
2018-12-18T06:20:05.451Z,1.77
2018-12-18T06:22:36.175Z,1.10
2018-12-18T06:25:07.016Z,1.13
2018-12-18T06:27:37.642Z,1.35
2018-12-18T06:30:08.521Z,1.40
2018-12-18T06:32:39.170Z,1.07
2018-12-18T06:35:10.616Z,1.23
2018-12-18T06:37:41.377Z,1.10
2018-12-18T06:40:12.130Z,1.20
2018-12-18T06:42:42.943Z,1.77
2018-12-18T06:45:13.696Z,1.17
2018-12-18T06:47:46.100Z,1.10
2018-12-18T06:50:16.742Z,1.20
2018-12-18T06:52:49.156Z,1.47
2018-12-18T06:55:20.459Z,1.07
2018-12-18T06:57:51.656Z,1.30
2018-12-18T07:00:22.328Z,1.32
2018-12-18T07:02:52.939Z,1.45
2018-12-18T07:05:23.805Z,1.47
2018-12-18T07:07:57.317Z,1.22
2018-12-18T07:10:27.212Z,1.00
2018-12-18T07:12:57.900Z,1.07
2018-12-18T07:15:30.427Z,1.05
2018-12-18T07:18:01.095Z,0.68
2018-12-18T07:20:33.399Z,0.90
2018-12-18T07:23:05.478Z,1.20
2018-12-18T07:25:36.108Z,1.02
2018-12-18T07:28:07.075Z,1.07
2018-12-18T07:30:37.975Z,0.85
2018-12-18T07:33:08.642Z,0.70
2018-12-18T07:35:39.246Z,1.07
2018-12-18T07:38:09.893Z,1.15
2018-12-18T07:40:40.630Z,1.10
2018-12-18T07:43:11.239Z,1.00
2018-12-18T07:45:41.902Z,0.70
2018-12-18T07:48:12.515Z,0.95
2018-12-18T07:50:43.629Z,1.20
2018-12-18T07:53:14.294Z,1.00
2018-12-18T07:55:44.894Z,1.15
2018-12-18T07:58:16.935Z,0.90
2018-12-18T08:00:54.344Z,1.20
2018-12-18T08:03:26.341Z,0.85
2018-12-18T08:05:56.949Z,0.95
2018-12-18T08:08:29.550Z,1.07
2018-12-18T08:11:00.304Z,0.95
2018-12-18T08:13:35.510Z,1.25
2018-12-18T08:16:06.193Z,0.90
2018-12-18T08:37:47.165Z,1.22
2018-12-18T08:40:18.236Z,2.20
2018-12-18T08:42:48.905Z,2.80
2018-12-18T08:45:19.644Z,4.20
2018-12-18T08:47:50.796Z,6.00
2018-12-18T08:50:22.910Z,11.75
2018-12-18T08:52:54.905Z,11.70
2018-12-18T08:55:25.558Z,6.92
2018-12-18T08:57:56.283Z,4.35
2018-12-18T09:00:26.993Z,2.65
2018-12-18T09:02:58.226Z,2.37
2018-12-18T09:05:28.950Z,1.98
2018-12-18T09:07:59.614Z,2.12
2018-12-18T09:10:30.583Z,3.10
2018-12-18T09:13:03.271Z,2.40
2018-12-18T09:15:38.989Z,2.55
2018-12-18T09:18:11.744Z,4.17
2018-12-18T09:20:42.443Z,3.20
2018-12-18T09:23:13.131Z,1.10
2018-12-18T09:25:43.886Z,1.90
2018-12-18T09:28:14.580Z,3.22
2018-12-18T09:30:45.315Z,3.30
2018-12-18T09:33:15.987Z,2.80
2018-12-18T09:35:49.708Z,2.87
2018-12-18T09:38:24.255Z,1.80
2018-12-18T09:40:59.961Z,0.90
2018-12-18T09:43:35.696Z,1.37
2018-12-18T09:46:08.051Z,1.30
2018-12-18T09:48:38.686Z,1.00
2018-12-18T09:51:09.544Z,1.02
2018-12-18T09:53:41.899Z,0.90
2018-12-18T09:56:51.751Z,1.30
2018-12-18T09:59:25.691Z,1.00
2018-12-18T10:01:56.716Z,1.12
2018-12-18T10:04:27.817Z,1.17
2018-12-18T10:07:00.146Z,0.90
2018-12-18T10:09:35.456Z,1.20
2018-12-18T10:12:08.145Z,1.45
2018-12-18T10:14:41.562Z,1.62
2018-12-18T10:17:13.527Z,1.55
2018-12-18T10:19:45.551Z,1.10
2018-12-18T10:22:16.254Z,1.57
2018-12-18T10:24:46.908Z,1.20
2018-12-18T10:27:17.523Z,1.55
2018-12-18T10:29:48.215Z,1.00
2018-12-18T10:32:18.835Z,1.20
2018-12-18T10:34:49.658Z,1.70
2018-12-18T10:37:20.314Z,1.40
2018-12-18T10:39:51.032Z,1.22
2018-12-18T10:42:21.820Z,1.35
2018-12-18T10:44:52.511Z,1.60
2018-12-18T10:47:23.239Z,1.45
2018-12-18T10:49:54.009Z,1.40
2018-12-18T10:52:24.602Z,1.57
2018-12-18T10:54:55.432Z,1.17
2018-12-18T10:57:26.191Z,1.20
2018-12-18T10:59:56.859Z,1.90
2018-12-18T11:02:27.517Z,1.40
2018-12-18T11:04:58.184Z,3.22
2018-12-18T11:07:28.774Z,1.92
2018-12-18T11:09:59.762Z,2.15
2018-12-18T11:12:36.959Z,1.60
2018-12-18T11:15:09.087Z,1.50
2018-12-18T11:17:39.832Z,1.72
2018-12-18T11:20:10.499Z,1.75
2018-12-18T11:22:41.288Z,1.87
2018-12-18T11:25:12.092Z,1.70
2018-12-18T11:27:42.728Z,3.12
2018-12-18T11:30:13.594Z,1.80
2018-12-18T11:32:44.186Z,1.72
2018-12-18T11:35:14.916Z,2.50
2018-12-18T11:37:45.555Z,2.10
2018-12-18T11:40:16.327Z,2.33
2018-12-18T11:42:46.965Z,2.08
2018-12-18T11:45:17.801Z,4.80
2018-12-18T11:47:48.451Z,6.30
2018-12-18T11:50:19.134Z,4.05
2018-12-18T11:52:49.774Z,2.90
2018-12-18T11:55:20.463Z,7.42
2018-12-18T11:57:51.606Z,29.18
2018-12-18T12:00:22.296Z,17.57
2018-12-18T12:02:53.075Z,28.05
2018-12-18T12:05:25.755Z,4.65
2018-12-18T12:07:56.477Z,3.58
2018-12-18T12:10:27.735Z,2.92
2018-12-18T12:12:58.453Z,32.65
2018-12-18T12:15:29.191Z,115.72
2018-12-18T12:18:00.405Z,25.23
2018-12-18T12:20:35.705Z,3.20
2018-12-18T12:23:07.109Z,4.00
2018-12-18T12:25:38.570Z,6.42
2018-12-18T12:28:09.216Z,10.63
2018-12-18T12:30:39.847Z,36.83
2018-12-18T12:33:10.535Z,23.65
2018-12-18T12:35:41.191Z,2.60
2018-12-18T12:38:12.343Z,2.65
2018-12-18T12:40:44.855Z,3.00
2018-12-18T12:43:15.649Z,11.20
2018-12-18T12:45:46.428Z,62.78
2018-12-18T12:48:18.679Z,11.97
2018-12-18T12:50:49.336Z,1.45
2018-12-18T12:53:20.257Z,1.45
2018-12-18T12:55:51.097Z,2.47
2018-12-18T12:58:21.766Z,4.12
2018-12-18T13:00:53.563Z,28.87
2018-12-18T13:03:24.248Z,7.70
2018-12-18T13:05:54.908Z,1.90
2018-12-18T13:08:25.595Z,2.00
2018-12-18T13:10:56.294Z,1.00
2018-12-18T13:13:26.952Z,0.80
2018-12-18T13:15:58.601Z,15.85
2018-12-18T13:18:29.217Z,2.50
2018-12-18T13:20:59.899Z,1.20
2018-12-18T13:23:30.583Z,1.40
2018-12-18T13:26:03.876Z,4.47
2018-12-18T13:28:35.730Z,17.50
2018-12-18T13:31:08.743Z,21.17
2018-12-18T13:33:39.632Z,22.00
2018-12-18T13:36:10.294Z,31.87
2018-12-18T13:38:41.209Z,15.03
2018-12-18T13:41:11.807Z,3.37
2018-12-18T13:43:42.496Z,4.22
2018-12-18T13:46:15.167Z,3.00
2018-12-18T13:48:45.861Z,12.93
2018-12-18T13:51:17.008Z,2.85
2018-12-18T13:53:47.655Z,11.33
2018-12-18T13:56:18.745Z,3.80
2018-12-18T13:58:49.529Z,1.60
2018-12-18T14:01:20.205Z,1.35
2018-12-18T14:03:50.853Z,0.98
2018-12-18T14:06:21.913Z,1.10
2018-12-18T14:08:52.641Z,0.90
2018-12-18T14:11:23.279Z,1.30
2018-12-18T14:13:53.947Z,1.20
2018-12-18T14:16:24.607Z,1.42
2018-12-18T14:18:55.334Z,2.17
2018-12-18T14:21:26.067Z,4.00
2018-12-18T14:23:57.562Z,3.35
2018-12-18T14:26:28.249Z,2.75
2018-12-18T14:28:58.901Z,2.52
2018-12-18T14:31:29.700Z,2.60
2018-12-18T14:34:00.499Z,32.63
2018-12-18T14:36:31.695Z,11.08
2018-12-18T14:39:06.689Z,7.00
2018-12-18T14:41:39.339Z,2.72
2018-12-18T14:44:09.999Z,5.70
2018-12-18T14:46:40.661Z,7.72
2018-12-18T14:49:11.368Z,90.85
2018-12-18T14:51:42.155Z,44.38
2018-12-18T14:54:13.067Z,5.97
2018-12-18T14:56:43.726Z,2.50
2018-12-18T14:59:14.426Z,2.10
2018-12-18T15:01:45.136Z,5.37
2018-12-18T15:04:16.144Z,2.52
2018-12-18T15:06:47.738Z,82.37
2018-12-18T15:09:18.367Z,31.57
2018-12-18T15:11:49.026Z,6.80
2018-12-18T15:14:19.727Z,3.87
2018-12-18T15:16:50.615Z,2.83
2018-12-18T15:19:21.336Z,23.67
2018-12-18T15:21:52.071Z,48.20
2018-12-18T15:24:23.082Z,55.33
2018-12-18T15:26:53.858Z,20.75
2018-12-18T15:29:24.818Z,5.78
2018-12-18T15:31:55.633Z,4.30
2018-12-18T15:34:27.519Z,2.92
2018-12-18T15:36:58.354Z,11.53
2018-12-18T15:39:29.398Z,11.57
2018-12-18T15:42:01.922Z,28.57
2018-12-18T15:44:34.962Z,3.52
2018-12-18T15:47:05.631Z,3.15
2018-12-18T15:49:36.284Z,3.02
2018-12-18T15:52:07.005Z,2.98
2018-12-18T15:54:38.879Z,2.98
2018-12-18T15:57:09.600Z,2.77
2018-12-18T15:59:40.232Z,2.90
2018-12-18T16:02:10.992Z,2.52
2018-12-18T16:04:41.743Z,4.45
2018-12-18T16:07:16.065Z,4.30
2018-12-18T16:09:45.330Z,4.25
2018-12-18T16:12:16.010Z,3.67
2018-12-18T16:14:46.677Z,4.05
2018-12-18T16:17:17.376Z,4.55
2018-12-18T16:19:48.165Z,4.00
2018-12-18T16:22:18.832Z,10.28
2018-12-18T16:24:49.921Z,26.60
2018-12-18T16:27:21.935Z,16.27
2018-12-18T16:29:52.608Z,8.65
2018-12-18T16:32:24.238Z,4.65
2018-12-18T16:34:54.904Z,8.88
2018-12-18T16:37:25.616Z,12.90
2018-12-18T16:39:56.442Z,10.10
2018-12-18T16:42:27.183Z,7.55
2018-12-18T16:44:57.907Z,9.10
2018-12-18T16:47:28.570Z,7.20
2018-12-18T16:49:59.303Z,6.05
2018-12-18T16:52:29.977Z,5.35
2018-12-18T16:55:03.312Z,6.10
2018-12-18T16:57:33.945Z,6.10
2018-12-18T17:00:05.459Z,6.22
2018-12-18T17:02:36.266Z,7.58
2018-12-18T17:05:08.495Z,7.35
2018-12-18T17:07:39.432Z,7.70
2018-12-18T17:10:10.265Z,7.72
2018-12-18T17:12:46.158Z,6.78
2018-12-18T17:15:17.901Z,6.45
2018-12-18T17:17:49.249Z,6.30
2018-12-18T17:20:20.611Z,5.45
2018-12-18T17:22:51.328Z,5.35
2018-12-18T17:25:22.118Z,5.80
2018-12-18T17:27:53.015Z,5.87
2018-12-18T17:30:23.990Z,5.37
2018-12-18T17:32:54.673Z,6.47
2018-12-18T17:35:25.847Z,9.78
2018-12-18T17:37:56.508Z,11.08
2018-12-18T17:40:27.122Z,11.30
2018-12-18T17:42:58.295Z,11.60
2018-12-18T17:45:29.011Z,11.48
2018-12-18T17:47:59.748Z,11.08
2018-12-18T17:50:31.036Z,12.60
2018-12-18T17:53:03.881Z,13.80
2018-12-18T17:55:34.847Z,12.23
2018-12-18T17:58:05.692Z,13.75
2018-12-18T18:00:36.342Z,14.43
2018-12-18T18:03:07.041Z,13.58
2018-12-18T18:05:37.727Z,22.35
2018-12-18T18:08:08.388Z,22.10
2018-12-18T18:10:39.102Z,31.50
2018-12-18T18:13:09.721Z,50.90
2018-12-18T18:15:41.108Z,79.35
2018-12-18T18:18:11.772Z,81.60
2018-12-18T18:20:43.225Z,90.67
2018-12-18T18:23:13.928Z,43.73
2018-12-18T18:25:45.623Z,120.08
2018-12-18T18:28:16.330Z,131.03
2018-12-18T18:30:47.399Z,121.50
2018-12-18T18:33:18.051Z,118.62
2018-12-18T18:35:48.743Z,114.63
2018-12-18T18:38:19.529Z,107.47
2018-12-18T18:40:50.159Z,95.85
2018-12-18T18:43:21.267Z,70.92
2018-12-18T18:45:52.043Z,58.68
2018-12-18T18:48:22.679Z,62.77
2018-12-18T18:50:53.879Z,53.40
2018-12-18T18:53:24.951Z,51.53
2018-12-18T18:55:55.609Z,41.47
2018-12-18T18:58:26.367Z,38.70
2018-12-18T19:00:57.344Z,37.27
2018-12-18T19:03:27.986Z,35.52
2018-12-18T19:05:58.871Z,37.70
2018-12-18T19:08:29.509Z,40.50
2018-12-18T19:11:05.376Z,39.67
2018-12-18T19:13:36.248Z,39.90
2018-12-18T19:16:08.095Z,42.13
2018-12-18T19:18:39.203Z,45.23
2018-12-18T19:21:10.025Z,42.87
2018-12-18T19:23:40.819Z,39.85
2018-12-18T19:26:11.595Z,38.83
2018-12-18T19:28:42.756Z,40.98
2018-12-18T19:31:13.466Z,43.05
2018-12-18T19:33:44.590Z,46.80
2018-12-18T19:36:15.330Z,46.48
2018-12-18T19:38:46.000Z,48.38
2018-12-18T19:41:17.126Z,50.03
2018-12-18T19:43:48.255Z,72.30
2018-12-18T19:46:18.929Z,82.53
2018-12-18T19:48:49.540Z,58.30
2018-12-18T19:51:20.308Z,44.27
2018-12-18T19:53:51.010Z,88.63
2018-12-18T19:56:21.776Z,84.53
2018-12-18T19:58:52.423Z,51.70
2018-12-18T20:01:24.657Z,70.83
2018-12-18T20:03:55.359Z,73.80
2018-12-18T20:06:26.217Z,42.00
2018-12-18T20:08:56.988Z,45.20
2018-12-18T20:11:28.274Z,48.17
2018-12-18T20:13:59.036Z,58.55
2018-12-18T20:16:30.854Z,56.00
2018-12-18T20:19:05.338Z,50.17
2018-12-18T20:21:36.080Z,49.93
2018-12-18T20:24:06.881Z,48.68
2018-12-18T20:26:37.508Z,45.83
2018-12-18T20:29:08.234Z,48.87
2018-12-18T20:31:39.355Z,49.27
2018-12-18T20:34:10.111Z,54.00
2018-12-18T20:36:41.126Z,55.00
2018-12-18T20:39:11.922Z,52.60
2018-12-18T20:41:42.613Z,47.05
2018-12-18T20:44:13.250Z,43.50
2018-12-18T20:46:44.615Z,40.80
2018-12-18T20:49:15.672Z,47.03
2018-12-18T20:51:46.466Z,47.53
2018-12-18T20:54:17.300Z,49.20
2018-12-18T20:56:48.018Z,51.87
2018-12-18T20:59:18.888Z,50.90
2018-12-18T21:01:49.626Z,49.33
2018-12-18T21:04:20.406Z,47.43
2018-12-18T21:06:52.985Z,45.07
2018-12-18T21:09:23.988Z,44.47
2018-12-18T21:11:54.639Z,42.67
2018-12-18T21:14:25.438Z,42.57
2018-12-18T21:16:56.371Z,43.10
2018-12-18T21:19:27.283Z,43.10
2018-12-18T21:21:58.228Z,41.77
2018-12-18T21:24:29.315Z,34.77
2018-12-18T21:27:04.138Z,38.30
2018-12-18T21:29:35.383Z,38.70
2018-12-18T21:32:08.449Z,36.83
2018-12-18T21:34:39.525Z,39.17
2018-12-18T21:37:10.903Z,41.77
2018-12-18T21:39:43.925Z,40.70
2018-12-18T21:42:14.888Z,47.43
2018-12-18T21:44:46.443Z,49.87
2018-12-18T21:47:17.522Z,57.63
2018-12-18T21:49:48.382Z,57.00
2018-12-18T21:52:19.577Z,56.30
2018-12-18T21:54:50.341Z,56.53
2018-12-18T21:57:21.127Z,53.93
2018-12-18T21:59:52.479Z,55.87
2018-12-18T22:02:23.190Z,55.80
2018-12-18T22:04:54.538Z,50.63
2018-12-18T22:07:25.251Z,51.60
2018-12-18T22:09:56.063Z,52.43
2018-12-18T22:12:26.742Z,48.90
2018-12-18T22:14:57.407Z,48.53
2018-12-18T22:17:28.783Z,50.17
2018-12-18T22:19:59.503Z,55.97
2018-12-18T22:22:30.192Z,53.90
2018-12-18T22:25:02.379Z,53.73
2018-12-18T22:27:33.157Z,50.07
2018-12-18T22:30:08.955Z,46.07
2018-12-18T22:32:40.226Z,46.80
2018-12-18T22:35:11.022Z,48.63
2018-12-18T22:37:41.736Z,44.10
2018-12-18T22:40:12.457Z,49.50
2018-12-18T22:42:43.152Z,47.67
2018-12-18T22:45:14.667Z,39.57
2018-12-18T22:47:45.942Z,44.07
2018-12-18T22:50:21.336Z,42.70
2018-12-18T22:52:55.416Z,44.23
2018-12-18T22:55:26.222Z,61.10
2018-12-18T22:57:56.893Z,55.83
2018-12-18T23:00:32.938Z,58.40
2018-12-18T23:03:07.184Z,54.33
2018-12-18T23:05:37.868Z,49.83
2018-12-18T23:08:08.597Z,52.93
2018-12-18T23:10:39.398Z,45.40
2018-12-18T23:13:12.130Z,36.73
2018-12-18T23:15:42.881Z,41.53
2018-12-18T23:18:13.552Z,36.80
2018-12-18T23:20:44.348Z,40.53
2018-12-18T23:23:15.513Z,38.33
2018-12-18T23:25:46.244Z,36.63
2018-12-18T23:28:17.527Z,32.57
2018-12-18T23:30:51.413Z,33.00
2018-12-18T23:33:22.971Z,31.87
2018-12-18T23:35:54.204Z,32.80
2018-12-18T23:38:25.062Z,33.03
2018-12-18T23:40:55.808Z,40.30
2018-12-18T23:43:26.484Z,47.53
2018-12-18T23:45:57.567Z,45.17
2018-12-18T23:48:28.271Z,46.27
2018-12-18T23:50:58.932Z,42.60
2018-12-18T23:53:29.980Z,43.30
2018-12-18T23:56:04.283Z,47.40
2018-12-18T23:58:35.013Z,45.80
